Time;durP1;ratioP1;P1;durP2;ratioP2;P2;SDS_P1;SDS_P2;PMS_P1;PMS_P2;Temp;Humidity;BMP_temperature;BMP_pressure;BME280_temperature;BME280_humidity;BME280_pressure;Samples;Min_cycle;Max_cycle;Signal;HPM_P1;HPM_P2
2022/10/24 00:01:59;;;;;;;0.00;0.00;;;;;;;14.20;100.00;99655.28;5070612;28;20171;-76
2022/10/24 00:04:24;;;;;;;0.93;0.60;;;;;;;14.25;100.00;99662.44;5070438;28;20539;-76
2022/10/24 00:06:49;;;;;;;1.10;0.70;;;;;;;14.30;100.00;99660.22;5070224;28;20582;-76
2022/10/24 00:09:14;;;;;;;1.10;1.10;;;;;;;14.32;100.00;99656.31;5070449;28;20175;-75
2022/10/24 00:11:41;;;;;;;0.03;0.03;;;;;;;14.35;100.00;99661.13;5070122;28;20178;-75
2022/10/24 00:14:06;;;;;;;0.50;0.50;;;;;;;14.32;100.00;99659.06;5070349;28;20508;-75
2022/10/24 00:16:31;;;;;;;0.40;0.40;;;;;;;14.29;100.00;99661.38;5070222;28;20174;-75
2022/10/24 00:18:57;;;;;;;0.00;0.00;;;;;;;14.20;100.00;99660.78;5069178;28;20202;-75
2022/10/24 00:21:22;;;;;;;0.27;0.27;;;;;;;14.26;100.00;99655.78;5052335;28;20175;-75
2022/10/24 00:23:47;;;;;;;0.00;0.00;;;;;;;14.24;100.00;99658.09;5070045;28;20623;-76
2022/10/24 00:26:13;;;;;;;0.30;0.30;;;;;;;14.27;100.00;99673.88;5070081;28;20185;-75
2022/10/24 00:28:39;;;;;;;0.10;0.10;;;;;;;14.28;100.00;99665.28;5070442;28;20182;-75
2022/10/24 00:31:06;;;;;;;0.00;0.00;;;;;;;14.31;100.00;99672.00;5070581;28;20269;-75
2022/10/24 00:33:32;;;;;;;0.63;0.63;;;;;;;14.38;100.00;99665.91;5070236;28;20174;-75
2022/10/24 00:35:57;;;;;;;0.40;0.40;;;;;;;14.39;100.00;99673.00;5072484;28;20179;-75
2022/10/24 00:38:23;;;;;;;0.10;0.10;;;;;;;14.40;100.00;99675.38;5074206;28;20174;-76
2022/10/24 00:40:48;;;;;;;0.10;0.10;;;;;;;14.44;100.00;99662.53;5074018;28;20544;-76
2022/10/24 00:43:23;;;;;;;0.00;0.00;;;;;;;14.42;100.00;99666.78;5073776;28;20244;-75
2022/10/24 00:45:53;;;;;;;0.00;0.00;;;;;;;14.34;100.00;99671.31;5073603;28;20207;-76
2022/10/24 00:48:40;;;;;;;1.03;0.93;;;;;;;14.28;100.00;99662.53;5073804;28;20449;-75
2022/10/24 00:51:27;;;;;;;1.23;0.37;;;;;;;14.29;100.00;99668.81;5074114;28;20193;-75
2022/10/24 00:53:58;;;;;;;1.03;1.03;;;;;;;14.23;100.00;99657.31;5073512;28;20179;-76
2022/10/24 00:56:29;;;;;;;0.70;0.70;;;;;;;14.20;100.00;99655.28;5073498;28;20579;-76
2022/10/24 00:58:56;;;;;;;0.40;0.30;;;;;;;14.20;100.00;99652.53;5073722;28;20294;-76
2022/10/24 01:01:23;;;;;;;0.00;0.00;;;;;;;14.18;100.00;99654.84;5073644;28;20540;-76
2022/10/24 01:03:49;;;;;;;0.20;0.20;;;;;;;14.20;100.00;99660.78;5073456;28;20296;-75
2022/10/24 01:06:42;;;;;;;0.70;0.70;;;;;;;14.23;100.00;99657.31;5073536;28;20178;-75
2022/10/24 01:09:32;;;;;;;16.33;1.60;;;;;;;14.23;100.00;99659.25;5073373;28;20182;-75
2022/10/24 01:12:11;;;;;;;0.13;0.13;;;;;;;14.18;100.00;99654.03;5073483;28;20177;-76
2022/10/24 01:14:39;;;;;;;1.33;0.90;;;;;;;14.18;100.00;99656.78;5072213;28;20253;-75
2022/10/24 01:17:17;;;;;;;0.20;0.20;;;;;;;14.13;100.00;99648.78;5073308;28;20255;-75
2022/10/24 01:20:00;;;;;;;0.13;0.13;;;;;;;14.17;100.00;99650.47;5073340;28;20210;-75
2022/10/24 01:22:50;;;;;;;0.00;0.00;;;;;;;14.11;100.00;99660.16;5073125;28;20229;-76
2022/10/24 01:26:09;;;;;;;2.73;1.33;;;;;;;14.18;100.00;99646.59;5047671;28;20799;-74
2022/10/24 01:28:48;;;;;;;0.30;0.30;;;;;;;14.14;100.00;99637.44;4991351;28;20232;-75
2022/10/24 01:31:24;;;;;;;0.83;0.83;;;;;;;14.12;100.00;99644.47;4991302;28;20739;-75
2022/10/24 01:33:54;;;;;;;0.63;0.57;;;;;;;14.09;100.00;99636.94;5050404;28;20205;-75
2022/10/24 01:37:09;;;;;;;0.50;0.50;;;;;;;14.10;100.00;99635.78;5072788;28;20255;-76
2022/10/24 01:39:44;;;;;;;0.40;0.40;;;;;;;14.11;100.00;99629.13;5059187;28;20187;-75
2022/10/24 01:42:14;;;;;;;1.80;0.47;;;;;;;14.12;100.00;99628.78;5071313;28;20197;-74
2022/10/24 01:44:43;;;;;;;0.50;0.50;;;;;;;14.17;100.00;99620.25;5072581;28;20193;-76
2022/10/24 01:47:17;;;;;;;1.20;1.20;;;;;;;14.23;100.00;99629.03;5072232;28;20174;-74
2022/10/24 01:49:52;;;;;;;2.67;0.83;;;;;;;14.26;100.00;99620.88;5072707;28;20167;-74
2022/10/24 01:52:19;;;;;;;0.27;0.27;;;;;;;14.32;100.00;99628.84;5072474;28;20186;-75
2022/10/24 01:54:46;;;;;;;0.10;0.10;;;;;;;14.26;100.00;99626.38;5072526;28;20184;-75
2022/10/24 01:57:13;;;;;;;0.60;0.47;;;;;;;14.21;100.00;99614.88;5071920;28;20249;-76
2022/10/24 01:59:42;;;;;;;1.97;1.80;;;;;;;14.27;100.00;99624.41;5072404;28;20159;-73
2022/10/24 02:02:10;;;;;;;2.23;1.67;;;;;;;14.31;100.00;99633.53;5072202;28;20166;-75
2022/10/24 02:04:41;;;;;;;7.17;1.33;;;;;;;14.35;100.00;99626.19;5072202;28;20179;-74
2022/10/24 02:07:10;;;;;;;0.23;0.20;;;;;;;14.32;100.00;99624.16;5071961;28;20637;-74
2022/10/24 02:09:38;;;;;;;0.37;0.37;;;;;;;14.36;100.00;99629.75;5071801;28;20178;-74
2022/10/24 02:12:07;;;;;;;0.10;0.10;;;;;;;14.36;100.00;99618.75;5054076;28;20181;-74
2022/10/24 02:14:37;;;;;;;0.40;0.40;;;;;;;14.39;100.00;99629.03;5072299;28;20822;-75
2022/10/24 02:17:03;;;;;;;1.27;1.23;;;;;;;14.31;100.00;99622.53;5071658;28;20175;-75
2022/10/24 02:19:30;;;;;;;0.37;0.13;;;;;;;14.29;100.00;99619.34;5071956;28;20521;-75
2022/10/24 02:22:17;;;;;;;0.57;0.57;;;;;;;14.25;100.00;99604.75;5071773;28;20178;-75
2022/10/24 02:24:51;;;;;;;0.00;0.00;;;;;;;14.20;100.00;99610.53;5071908;28;20211;-75
2022/10/24 02:27:24;;;;;;;0.00;0.00;;;;;;;14.16;100.00;99593.13;5071674;28;20584;-75
2022/10/24 02:29:59;;;;;;;0.00;0.00;;;;;;;14.18;100.00;99588.91;5053785;28;20542;-76
2022/10/24 02:32:33;;;;;;;0.00;0.00;;;;;;;14.24;100.00;99589.41;5071689;28;20197;-74
2022/10/24 02:35:01;;;;;;;0.00;0.00;;;;;;;14.19;100.00;99585.00;5071614;28;20175;-74
2022/10/24 02:37:29;;;;;;;0.00;0.00;;;;;;;14.18;100.00;99583.41;5071350;28;20740;-75
2022/10/24 02:39:56;;;;;;;0.00;0.00;;;;;;;13.94;100.00;99583.59;5071749;28;20558;-75
2022/10/24 02:42:23;;;;;;;0.30;0.30;;;;;;;13.82;100.00;99583.69;5071475;28;20198;-75
2022/10/24 02:44:49;;;;;;;0.00;0.00;;;;;;;13.64;100.00;99591.47;5071556;28;20633;-76
2022/10/24 02:47:18;;;;;;;0.00;0.00;;;;;;;13.50;100.00;99599.34;5071715;28;20166;-75
2022/10/24 02:49:43;;;;;;;0.00;0.00;;;;;;;13.40;100.00;99595.94;5071744;28;20193;-74
2022/10/24 02:52:09;;;;;;;0.20;0.20;;;;;;;13.18;100.00;99580.06;5071603;28;20178;-74
2022/10/24 02:54:34;;;;;;;0.00;0.00;;;;;;;13.24;100.00;99583.34;5072625;28;20232;-76
2022/10/24 02:57:02;;;;;;;0.00;0.00;;;;;;;13.23;100.00;99581.75;5078521;28;20167;-75
2022/10/24 02:59:28;;;;;;;0.00;0.00;;;;;;;13.03;100.00;99567.06;5071980;28;20163;-76
2022/10/24 03:01:53;;;;;;;2.83;2.63;;;;;;;12.99;100.00;99568.91;5071406;28;20192;-75
2022/10/24 03:04:18;;;;;;;0.00;0.00;;;;;;;13.18;100.00;99557.28;5071259;28;20198;-75
2022/10/24 03:06:44;;;;;;;3.83;1.53;;;;;;;13.30;100.00;99546.25;5071341;28;20166;-75
2022/10/24 03:09:09;;;;;;;0.00;0.00;;;;;;;13.33;100.00;99549.13;5071624;28;20535;-75
2022/10/24 03:11:34;;;;;;;0.00;0.00;;;;;;;13.32;100.00;99544.78;5070935;28;20740;-73
2022/10/24 03:14:00;;;;;;;0.23;0.23;;;;;;;13.23;100.00;99543.34;5053577;28;20227;-73
2022/10/24 03:16:26;;;;;;;0.00;0.00;;;;;;;13.32;100.00;99547.53;5074826;28;20182;-73
2022/10/24 03:18:52;;;;;;;0.00;0.00;;;;;;;13.52;100.00;99542.13;5053559;28;20676;-73
2022/10/24 03:21:17;;;;;;;0.00;0.00;;;;;;;13.67;100.00;99553.13;5071019;28;20179;-73
2022/10/24 03:23:42;;;;;;;0.00;0.00;;;;;;;13.72;100.00;99540.28;5070984;28;20198;-74
2022/10/24 03:26:08;;;;;;;1.27;0.70;;;;;;;13.87;100.00;99550.47;5070696;28;20261;-73
2022/10/24 03:28:34;;;;;;;0.10;0.10;;;;;;;14.14;100.00;99559.75;5071045;28;20175;-73
2022/10/24 03:30:59;;;;;;;1.50;1.40;;;;;;;14.20;100.00;99564.63;5071275;28;20166;-74
2022/10/24 03:33:24;;;;;;;0.00;0.00;;;;;;;14.28;100.00;99560.06;5070937;28;20166;-73
2022/10/24 03:35:54;;;;;;;0.00;0.00;;;;;;;14.24;100.00;99556.44;5070694;28;20528;-73
2022/10/24 03:38:20;;;;;;;0.00;0.00;;;;;;;14.25;100.00;99567.06;5070952;28;20171;-73
2022/10/24 03:40:45;;;;;;;0.70;0.70;;;;;;;14.24;100.00;99567.44;5070654;28;20177;-73
2022/10/24 03:43:11;;;;;;;0.00;0.00;;;;;;;14.37;100.00;99559.88;5070771;28;20198;-73
2022/10/24 03:45:36;;;;;;;0.00;0.00;;;;;;;14.32;100.00;99558.22;5070636;28;20242;-74
2022/10/24 03:48:02;;;;;;;0.00;0.00;;;;;;;14.37;100.00;99570.88;5070486;28;20637;-73
2022/10/24 03:50:28;;;;;;;0.10;0.10;;;;;;;14.55;100.00;99566.59;5070996;28;20199;-73
2022/10/24 03:52:53;;;;;;;0.13;0.13;;;;;;;14.55;100.00;99561.91;5070545;28;20240;-73
2022/10/24 03:55:19;;;;;;;0.10;0.10;;;;;;;14.55;100.00;99563.84;5070520;28;20178;-73
2022/10/24 03:57:44;;;;;;;0.00;0.00;;;;;;;14.62;100.00;99560.47;5069030;28;20197;-73
2022/10/24 04:00:10;;;;;;;4.53;0.40;;;;;;;14.57;100.00;99572.53;5070735;28;20166;-73
2022/10/24 04:02:35;;;;;;;0.33;0.33;;;;;;;14.72;100.00;99562.63;5070432;28;20200;-73
2022/10/24 04:05:01;;;;;;;2.53;2.53;;;;;;;14.77;100.00;99552.16;5070355;28;20178;-73
2022/10/24 04:07:26;;;;;;;0.00;0.00;;;;;;;14.69;100.00;99558.66;5070335;28;20212;-74
2022/10/24 04:09:51;;;;;;;0.00;0.00;;;;;;;14.75;100.00;99553.66;5070817;28;20708;-73
2022/10/24 04:12:16;;;;;;;0.13;0.13;;;;;;;14.70;100.00;99546.50;5074856;28;20253;-73
2022/10/24 04:14:42;;;;;;;0.07;0.07;;;;;;;14.78;100.00;99553.75;5074348;28;20626;-73
2022/10/24 04:17:07;;;;;;;0.00;0.00;;;;;;;14.85;100.00;99548.38;5074219;28;20630;-73
2022/10/24 04:19:33;;;;;;;0.13;0.10;;;;;;;14.80;100.00;99551.44;5074406;28;20171;-74
2022/10/24 04:21:58;;;;;;;0.00;0.00;;;;;;;14.87;100.00;99551.56;5074213;28;20293;-74
2022/10/24 04:24:24;;;;;;;0.00;0.00;;;;;;;14.90;100.00;99561.06;5074274;28;20206;-73
2022/10/24 04:26:49;;;;;;;0.33;0.10;;;;;;;14.92;100.00;99547.75;5073979;28;20228;-73
2022/10/24 04:29:14;;;;;;;1.70;0.73;;;;;;;14.96;100.00;99547.81;5074545;28;20171;-73
2022/10/24 04:31:40;;;;;;;0.17;0.17;;;;;;;14.81;100.00;99544.78;5074433;28;20167;-73
2022/10/24 04:34:05;;;;;;;31.47;1.13;;;;;;;14.78;100.00;99548.25;5074020;28;20174;-74
2022/10/24 04:36:31;;;;;;;0.00;0.00;;;;;;;14.84;100.00;99538.53;5073912;28;20168;-72
2022/10/24 04:38:57;;;;;;;0.10;0.10;;;;;;;14.82;100.00;99542.81;5074026;28;20715;-73
2022/10/24 04:41:22;;;;;;;11.03;0.47;;;;;;;14.77;100.00;99543.13;5074016;28;20174;-73
2022/10/24 04:43:47;;;;;;;0.83;0.83;;;;;;;14.85;100.00;99544.84;5073727;28;20339;-72
2022/10/24 04:46:13;;;;;;;1.40;1.17;;;;;;;14.79;100.00;99544.34;5073625;28;20334;-73
2022/10/24 04:48:38;;;;;;;0.10;0.10;;;;;;;14.81;100.00;99549.47;5055647;28;20231;-73
2022/10/24 04:51:03;;;;;;;0.00;0.00;;;;;;;14.78;100.00;99551.00;5073978;28;20185;-73
2022/10/24 04:53:29;;;;;;;0.00;0.00;;;;;;;14.73;100.00;99544.97;5073769;28;20228;-73
2022/10/24 04:55:54;;;;;;;0.10;0.10;;;;;;;14.76;100.00;99556.06;5073410;28;20174;-73
2022/10/24 04:58:20;;;;;;;0.90;0.87;;;;;;;14.76;100.00;99556.06;5073396;28;20182;-73
2022/10/24 05:00:48;;;;;;;0.00;0.00;;;;;;;14.72;100.00;99541.44;5073883;28;20179;-73
2022/10/24 05:03:14;;;;;;;0.60;0.60;;;;;;;14.67;100.00;99544.47;5073478;28;20704;-73
2022/10/24 05:05:39;;;;;;;1.40;1.30;;;;;;;14.75;100.00;99539.91;5073372;28;20206;-73
2022/10/24 05:08:05;;;;;;;0.47;0.47;;;;;;;14.75;100.00;99543.44;5073328;28;20174;-73
2022/10/24 05:10:30;;;;;;;0.50;0.50;;;;;;;14.81;100.00;99543.97;5073053;28;20326;-73
2022/10/24 05:12:56;;;;;;;4.37;1.30;;;;;;;14.73;100.00;99542.22;5073309;28;20193;-73
2022/10/24 05:15:21;;;;;;;0.00;0.00;;;;;;;14.65;100.00;99535.78;5073293;28;20174;-73
2022/10/24 05:17:47;;;;;;;1.17;1.17;;;;;;;14.65;100.00;99533.03;5072862;28;20286;-73
2022/10/24 05:20:12;;;;;;;0.00;0.00;;;;;;;14.59;100.00;99537.22;5073249;28;20179;-73
2022/10/24 05:22:37;;;;;;;1.23;0.30;;;;;;;14.57;100.00;99532.09;5072928;28;20673;-74
2022/10/24 05:25:03;;;;;;;5.17;2.13;;;;;;;14.61;100.00;99520.38;5073206;28;20629;-75
2022/10/24 05:27:29;;;;;;;0.00;0.00;;;;;;;14.66;100.00;99518.16;5071419;28;20174;-73
2022/10/24 05:29:54;;;;;;;0.00;0.00;;;;;;;14.66;100.00;99526.38;5055155;28;20189;-74
2022/10/24 05:32:21;;;;;;;0.00;0.00;;;;;;;14.57;100.00;99520.28;5071612;28;20274;-74
2022/10/24 05:34:46;;;;;;;0.30;0.30;;;;;;;14.63;100.00;99523.56;5073185;28;20182;-73
2022/10/24 05:37:12;;;;;;;0.83;0.77;;;;;;;14.78;100.00;99519.97;5072656;28;20189;-73
2022/10/24 05:39:37;;;;;;;8.90;1.27;;;;;;;14.84;100.00;99522.03;5071263;28;20536;-74
2022/10/24 05:42:03;;;;;;;0.03;0.03;;;;;;;14.73;100.00;99522.97;5068001;28;20186;-73
2022/10/24 05:44:28;;;;;;;0.60;0.60;;;;;;;14.70;100.00;99538.25;5071706;28;20632;-74
2022/10/24 05:46:54;;;;;;;4.07;2.33;;;;;;;14.71;100.00;99523.34;5067547;28;20211;-74
2022/10/24 05:49:19;;;;;;;0.10;0.10;;;;;;;14.75;100.00;99526.94;5065972;28;20270;-73
2022/10/24 05:51:45;;;;;;;0.00;0.00;;;;;;;14.67;100.00;99522.47;5052670;28;20658;-73
2022/10/24 05:54:10;;;;;;;0.50;0.50;;;;;;;14.67;100.00;99519.72;5053049;28;20191;-72
2022/10/24 05:56:35;;;;;;;0.00;0.00;;;;;;;14.71;100.00;99523.34;5052220;28;20251;-73
2022/10/24 05:59:02;;;;;;;0.83;0.43;;;;;;;14.79;100.00;99532.53;5052380;28;20720;-73
2022/10/24 06:01:28;;;;;;;0.00;0.00;;;;;;;14.73;100.00;99529.28;5052409;28;20224;-73
2022/10/24 06:03:53;;;;;;;1.13;1.13;;;;;;;14.83;100.00;99539.69;5052417;28;20295;-73
2022/10/24 06:06:19;;;;;;;0.00;0.00;;;;;;;14.82;100.00;99540.84;5051935;28;20207;-73
2022/10/24 06:08:44;;;;;;;3.00;2.43;;;;;;;14.74;100.00;99546.56;5050953;28;20178;-73
2022/10/24 06:11:10;;;;;;;1.87;0.57;;;;;;;14.72;100.00;99544.19;5034393;28;20263;-73
2022/10/24 06:13:36;;;;;;;0.30;0.30;;;;;;;14.75;100.00;99554.44;5052160;28;20182;-73
2022/10/24 06:16:01;;;;;;;0.03;0.03;;;;;;;14.85;100.00;99558.59;5051773;28;20175;-74
2022/10/24 06:18:26;;;;;;;1.53;0.93;;;;;;;14.93;100.00;99545.78;5052041;28;20266;-73
2022/10/24 06:20:52;;;;;;;0.00;0.00;;;;;;;14.84;100.00;99546.00;5061329;28;20201;-73
2022/10/24 06:23:18;;;;;;;0.23;0.20;;;;;;;14.89;100.00;99537.44;5072284;28;20676;-73
2022/10/24 06:25:44;;;;;;;2.63;2.33;;;;;;;14.93;100.00;99543.03;5071716;28;20189;-73
2022/10/24 06:28:10;;;;;;;2.83;2.03;;;;;;;14.88;100.00;99539.41;5071945;28;20539;-73
2022/10/24 06:30:39;;;;;;;1.17;0.97;;;;;;;14.93;100.00;99545.78;5072041;28;20170;-78
2022/10/24 06:33:04;;;;;;;1.47;0.70;;;;;;;15.10;100.00;99556.34;5071044;28;20167;-74
2022/10/24 06:35:29;;;;;;;5.30;2.63;;;;;;;15.03;100.00;99547.94;5071969;28;20220;-74
2022/10/24 06:37:54;;;;;;;0.10;0.10;;;;;;;15.13;100.00;99545.41;5071474;28;20170;-73
2022/10/24 06:40:20;;;;;;;0.00;0.00;;;;;;;15.06;100.00;99548.03;5071815;28;20177;-73
2022/10/24 06:42:45;;;;;;;1.07;1.00;;;;;;;15.13;100.00;99555.63;5071647;28;20251;-73
2022/10/24 06:45:11;;;;;;;0.20;0.20;;;;;;;15.14;100.00;99558.00;5071646;28;20170;-73
2022/10/24 06:47:37;;;;;;;0.83;0.30;;;;;;;15.20;100.00;99546.72;5071267;28;20231;-73
2022/10/24 06:50:03;;;;;;;0.00;0.00;;;;;;;15.15;100.00;99553.28;5069614;28;20208;-73
2022/10/24 06:52:28;;;;;;;2.40;1.90;;;;;;;15.15;100.00;99548.59;5068573;28;20707;-73
2022/10/24 06:54:54;;;;;;;1.10;1.00;;;;;;;15.18;100.00;99560.81;5071331;28;20278;-74
2022/10/24 06:57:20;;;;;;;4.20;1.63;;;;;;;15.24;100.00;99566.84;5071163;28;20193;-73
2022/10/24 06:59:45;;;;;;;0.00;0.00;;;;;;;15.21;100.00;99553.81;5053469;28;20175;-74
2022/10/24 07:02:13;;;;;;;2.20;2.17;;;;;;;15.26;100.00;99564.50;5053424;28;20266;-74
2022/10/24 07:04:38;;;;;;;0.00;0.00;;;;;;;15.28;100.00;99559.44;5070758;28;20284;-74
2022/10/24 07:07:03;;;;;;;8.27;1.03;;;;;;;15.35;100.00;99567.84;5071291;28;20638;-73
2022/10/24 07:09:29;;;;;;;0.73;0.73;;;;;;;15.34;100.00;99575.31;5071478;28;20676;-73
2022/10/24 07:11:55;;;;;;;0.00;0.00;;;;;;;15.44;99.19;99565.63;5071442;28;20178;-73
2022/10/24 07:14:20;;;;;;;0.00;0.00;;;;;;;15.40;99.37;99568.31;5071250;28;20205;-76
2022/10/24 07:16:45;;;;;;;0.57;0.57;;;;;;;15.51;98.75;99567.72;5071148;28;20170;-74
2022/10/24 07:19:11;;;;;;;0.00;0.00;;;;;;;15.50;98.32;99571.66;5070433;28;20166;-75
2022/10/24 07:21:36;;;;;;;1.03;0.67;;;;;;;15.60;97.29;99571.84;5071172;28;20593;-74
2022/10/24 07:24:02;;;;;;;8.87;1.00;;;;;;;15.64;96.90;99574.69;5071365;28;20205;-73
2022/10/24 07:26:28;;;;;;;1.70;1.60;;;;;;;15.63;97.15;99589.63;5070686;28;20170;-73
2022/10/24 07:28:57;;;;;;;3.37;0.57;;;;;;;15.69;96.40;99591.69;5052795;28;20534;-74
2022/10/24 07:31:25;;;;;;;3.40;0.83;;;;;;;15.78;96.02;99596.97;5071272;28;20251;-73
2022/10/24 07:33:52;;;;;;;0.00;0.00;;;;;;;15.76;96.04;99589.03;5070897;28;20178;-74
2022/10/24 07:36:23;;;;;;;0.00;0.00;;;;;;;15.75;96.21;99592.16;5070751;28;20618;-74
2022/10/24 07:38:51;;;;;;;0.03;0.03;;;;;;;15.84;94.88;99587.22;5070979;28;20174;-83
2022/10/24 07:41:17;;;;;;;2.27;0.97;;;;;;;15.85;95.04;99597.09;5052656;28;20217;-74
2022/10/24 07:43:42;;;;;;;2.20;1.50;;;;;;;15.94;94.05;99596.84;5070798;28;20300;-73
2022/10/24 07:46:10;;;;;;;0.30;0.13;;;;;;;15.91;93.84;99592.88;5070327;28;20257;-74
2022/10/24 07:48:36;;;;;;;0.00;0.00;;;;;;;15.93;94.06;99596.06;5069393;28;20210;-74
2022/10/24 07:51:06;;;;;;;4.27;1.23;;;;;;;16.06;93.01;99602.16;5066047;28;20191;-74
2022/10/24 07:53:32;;;;;;;0.20;0.20;;;;;;;16.17;91.43;99596.81;5070287;28;20198;-73
2022/10/24 07:55:58;;;;;;;33.80;1.73;;;;;;;16.27;90.59;99604.47;5070428;28;20186;-74
2022/10/24 07:58:24;;;;;;;0.10;0.10;;;;;;;16.31;90.56;99603.34;5070407;28;20183;-74
2022/10/24 08:00:50;;;;;;;4.60;1.27;;;;;;;16.44;88.42;99586.59;5070114;28;20586;-75
2022/10/24 08:03:16;;;;;;;9.27;1.80;;;;;;;16.45;88.58;99596.44;5052571;28;20232;-74
2022/10/24 08:05:41;;;;;;;11.77;1.13;;;;;;;16.57;87.31;99590.72;5069930;28;20187;-74
2022/10/24 08:08:07;;;;;;;0.93;0.87;;;;;;;16.76;85.62;99585.09;5070392;28;20257;-74
2022/10/24 08:10:33;;;;;;;0.53;0.53;;;;;;;16.93;84.29;99586.53;5070457;28;20216;-74
2022/10/24 08:12:58;;;;;;;6.30;0.93;;;;;;;17.03;83.26;99579.53;5069554;28;20186;-74
2022/10/24 08:15:26;;;;;;;0.00;0.00;;;;;;;17.07;82.80;99583.13;5070206;28;20257;-74
2022/10/24 08:17:54;;;;;;;3.50;1.40;;;;;;;17.09;83.01;99583.56;5069832;28;20175;-73
2022/10/24 08:20:20;;;;;;;15.53;1.73;;;;;;;17.15;82.43;99587.56;5070351;28;20378;-73
2022/10/24 08:22:46;;;;;;;1.50;1.37;;;;;;;17.19;82.00;99588.41;5070086;28;20201;-74
2022/10/24 08:25:13;;;;;;;3.40;1.60;;;;;;;17.22;81.73;99588.47;5070427;28;20175;-74
2022/10/24 08:27:39;;;;;;;14.23;0.93;;;;;;;17.25;80.95;99589.66;5068401;28;20577;-73
2022/10/24 08:30:06;;;;;;;2.33;1.40;;;;;;;17.27;81.32;99597.56;5051976;28;20174;-74
2022/10/24 08:32:31;;;;;;;1.00;0.80;;;;;;;17.25;81.58;99601.50;5069742;28;20166;-73
2022/10/24 08:34:57;;;;;;;5.73;1.00;;;;;;;17.23;82.06;99589.25;5069950;28;20224;-73
2022/10/24 08:37:22;;;;;;;1.73;1.30;;;;;;;17.28;81.26;99585.34;5069448;28;20179;-73
2022/10/24 08:39:47;;;;;;;1.33;0.87;;;;;;;17.32;80.83;99583.41;5069884;28;20178;-74
2022/10/24 08:42:15;;;;;;;0.00;0.00;;;;;;;17.35;80.78;99588.19;5069584;28;20178;-74
2022/10/24 08:44:43;;;;;;;4.27;1.83;;;;;;;17.36;80.40;99595.28;5070024;28;20167;-74
2022/10/24 08:47:27;;;;;;;0.57;0.30;;;;;;;17.49;79.74;99589.13;5051351;28;20686;-73
2022/10/24 08:50:22;;;;;;;0.20;0.20;;;;;;;17.47;80.28;99591.47;5069837;28;20178;-74
2022/10/24 08:53:01;;;;;;;7.33;1.60;;;;;;;17.51;80.27;99595.09;5070023;28;20530;-73
2022/10/24 08:55:35;;;;;;;0.83;0.40;;;;;;;17.61;79.80;99592.78;5069707;28;20183;-73
2022/10/24 08:58:01;;;;;;;0.57;0.50;;;;;;;17.63;79.42;99599.53;5073119;28;20613;-73
2022/10/24 09:00:33;;;;;;;12.30;2.07;;;;;;;17.76;78.60;99589.81;5055438;28;20269;-73
2022/10/24 09:03:20;;;;;;;1.20;1.10;;;;;;;17.79;77.80;99585.50;5073129;28;20205;-74
2022/10/24 09:05:59;;;;;;;3.23;1.37;;;;;;;17.79;78.68;99583.56;5072910;28;20182;-73
2022/10/24 09:08:57;;;;;;;0.50;0.37;;;;;;;17.84;78.47;99582.41;5073283;28;20181;-73
2022/10/24 09:11:43;;;;;;;1.07;0.70;;;;;;;17.94;77.90;99595.53;5073332;28;20174;-73
2022/10/24 09:14:16;;;;;;;3.30;1.27;;;;;;;18.03;76.95;99589.66;5073169;28;20174;-74
2022/10/24 09:16:44;;;;;;;0.10;0.10;;;;;;;18.06;77.01;99580.59;5071491;28;20170;-73
2022/10/24 09:19:17;;;;;;;6.43;1.37;;;;;;;18.12;76.50;99574.34;5072885;28;20227;-73
2022/10/24 09:21:44;;;;;;;0.67;0.63;;;;;;;18.14;76.43;99565.66;5072761;28;20264;-74
2022/10/24 09:24:34;;;;;;;0.90;0.90;;;;;;;18.13;76.29;99569.59;5055229;28;20217;-73
2022/10/24 09:27:03;;;;;;;0.80;0.70;;;;;;;18.17;76.54;99564.09;5072599;28;20209;-73
2022/10/24 09:29:31;;;;;;;1.90;1.30;;;;;;;18.12;75.74;99573.56;5072704;28;20175;-73
2022/10/24 09:31:56;;;;;;;2.77;1.70;;;;;;;18.23;75.25;99570.88;5072635;28;20681;-72
2022/10/24 09:34:22;;;;;;;5.47;0.40;;;;;;;18.34;74.32;99580.00;5073215;28;20217;-73
2022/10/24 09:36:47;;;;;;;4.40;1.43;;;;;;;18.42;75.38;99582.44;5072203;28;20212;-73
2022/10/24 09:39:21;;;;;;;10.03;1.17;;;;;;;18.45;75.13;99580.88;5073040;28;20181;-73
2022/10/24 09:41:47;;;;;;;12.03;1.63;;;;;;;18.51;74.78;99578.53;5054555;28;20205;-73
2022/10/24 09:44:29;;;;;;;1.63;0.97;;;;;;;18.51;74.42;99568.25;5072433;28;20256;-73
2022/10/24 09:46:54;;;;;;;1.10;0.83;;;;;;;18.57;75.09;99569.50;5072301;28;20170;-73
2022/10/24 09:49:22;;;;;;;0.43;0.40;;;;;;;18.62;74.66;99565.56;5072604;28;20269;-74
2022/10/24 09:52:14;;;;;;;0.50;0.50;;;;;;;18.70;74.75;99570.00;5072807;28;20175;-73
2022/10/24 09:54:39;;;;;;;1.00;0.77;;;;;;;18.66;73.79;99574.69;5072422;28;20179;-73
2022/10/24 09:57:11;;;;;;;3.40;2.50;;;;;;;18.65;73.48;99579.44;5072031;28;20649;-73
2022/10/24 09:59:41;;;;;;;0.30;0.30;;;;;;;18.73;74.11;99578.31;5067828;28;20171;-73
2022/10/24 10:02:09;;;;;;;0.50;0.20;;;;;;;18.82;73.05;99593.78;5054632;28;20190;-76
2022/10/24 10:04:36;;;;;;;8.57;0.37;;;;;;;18.83;72.31;99600.91;5070415;28;20198;-75
2022/10/24 10:07:11;;;;;;;2.60;1.43;;;;;;;18.82;71.75;99594.59;5070193;28;20615;-76
2022/10/24 10:09:41;;;;;;;4.47;1.50;;;;;;;18.92;71.72;99598.56;5070487;28;20211;-79
2022/10/24 10:12:23;;;;;;;2.10;1.93;;;;;;;18.91;70.82;99594.22;5071943;28;20224;-76
2022/10/24 10:14:48;;;;;;;1.53;1.27;;;;;;;18.91;70.99;99591.44;5072232;28;20279;-76
2022/10/24 10:17:22;;;;;;;5.07;1.73;;;;;;;18.82;70.47;99594.59;5070278;28;20736;-76
2022/10/24 10:19:48;;;;;;;0.20;0.20;;;;;;;18.78;70.60;99587.41;5072424;28;20531;-75
2022/10/24 10:22:19;;;;;;;1.00;0.90;;;;;;;18.78;71.69;99585.44;5077514;28;20318;-75
2022/10/24 10:24:45;;;;;;;2.73;0.70;;;;;;;18.80;71.27;99593.34;5075762;28;20546;-76
2022/10/24 10:27:25;;;;;;;1.77;1.30;;;;;;;18.71;70.97;99600.06;5072783;28;20197;-75
2022/10/24 10:30:13;;;;;;;3.77;1.20;;;;;;;18.58;71.38;99597.97;5071925;28;20202;-75
2022/10/24 10:33:09;;;;;;;0.37;0.30;;;;;;;18.53;71.99;99587.28;5062134;28;20187;-75
2022/10/24 10:36:02;;;;;;;0.87;0.83;;;;;;;18.53;71.27;99598.34;5065595;28;20182;-75
2022/10/24 10:38:43;;;;;;;9.97;1.57;;;;;;;18.54;71.46;99595.19;5070260;28;20170;-74
2022/10/24 10:41:11;;;;;;;0.50;0.50;;;;;;;18.53;70.95;99610.19;5069518;28;20673;-76
2022/10/24 10:43:51;;;;;;;1.10;0.93;;;;;;;18.52;71.22;99611.38;5071548;28;20228;-73
2022/10/24 10:46:35;;;;;;;7.77;0.30;;;;;;;18.59;71.10;99605.09;5071453;28;20186;-74
2022/10/24 10:49:28;;;;;;;3.27;1.17;;;;;;;18.64;70.01;99601.97;5059200;28;20273;-74
2022/10/24 10:52:43;;;;;;;0.73;0.43;;;;;;;18.59;70.17;99605.88;5053586;28;20465;-74
2022/10/24 10:55:21;;;;;;;4.23;0.10;;;;;;;18.73;70.09;99610.72;5071551;28;20176;-73
2022/10/24 10:57:52;;;;;;;0.10;0.10;;;;;;;18.70;70.17;99619.81;5071424;28;20209;-73
2022/10/24 11:00:38;;;;;;;4.90;1.03;;;;;;;18.62;69.76;99620.91;5071447;28;20174;-75
2022/10/24 11:03:32;;;;;;;0.10;0.10;;;;;;;18.58;70.94;99629.19;5071202;28;20281;-74
2022/10/24 11:06:12;;;;;;;9.50;1.80;;;;;;;18.38;70.09;99634.19;5070820;28;20181;-74
2022/10/24 11:08:56;;;;;;;3.73;1.47;;;;;;;18.33;70.34;99636.50;5071078;28;20170;-73
2022/10/24 11:11:36;;;;;;;0.50;0.13;;;;;;;18.26;71.32;99633.69;5071049;28;20198;-74
2022/10/24 11:14:24;;;;;;;1.47;1.37;;;;;;;18.21;70.95;99636.81;5067580;28;20205;-73
2022/10/24 11:16:54;;;;;;;6.03;1.13;;;;;;;18.25;70.80;99632.13;5066700;28;20270;-73
2022/10/24 11:19:32;;;;;;;1.17;1.07;;;;;;;18.28;70.83;99639.63;5062330;28;20179;-73
2022/10/24 11:22:02;;;;;;;15.10;2.03;;;;;;;18.27;70.85;99630.53;5071030;28;20181;-74
2022/10/24 11:24:32;;;;;;;1.67;1.03;;;;;;;18.31;70.89;99636.09;5052838;28;20257;-74
2022/10/24 11:27:07;;;;;;;0.03;0.03;;;;;;;18.44;70.29;99642.91;5070592;28;20698;-75
2022/10/24 11:29:45;;;;;;;10.20;2.20;;;;;;;18.45;70.59;99638.97;5070553;28;20174;-75
2022/10/24 11:32:36;;;;;;;1.90;1.70;;;;;;;18.64;70.33;99638.72;5070058;28;20456;-75
2022/10/24 11:35:19;;;;;;;0.70;0.60;;;;;;;18.53;70.80;99646.16;5063744;28;20193;-76
2022/10/24 11:37:49;;;;;;;3.40;0.83;;;;;;;18.48;70.77;99643.72;5060572;28;20171;-76
2022/10/24 11:40:19;;;;;;;0.97;0.93;;;;;;;18.43;71.01;99635.81;5070622;28;20265;-76
2022/10/24 11:43:15;;;;;;;2.47;0.40;;;;;;;18.43;71.05;99638.56;5069013;28;20407;-76